ADDS METAR Data INFO
IDs: Format: Raw Decoded Include TAF

Data at: 1132 UTC 29 May 2017

KGDJ 291115Z AUTO 24004KT 10SM CLR 19/18 A3003 RMK AO2 T01880175
KGDJ 291055Z AUTO 24005KT 10SM CLR 19/18 A3002 RMK AO2 T01870175
KGDJ 291035Z AUTO 24003KT 7SM CLR 19/18 A3001 RMK AO2 T01900176
KGDJ 291015Z AUTO 26003KT 10SM CLR 19/18 A3000 RMK AO2 T01930177
KGDJ 290955Z AUTO 28003KT 10SM CLR 20/18 A3000 RMK AO2 T01970181
KGDJ 290935Z AUTO 00000KT 10SM CLR 21/19 A2999 RMK AO2 T02050185
KGDJ 290915Z AUTO 33005KT 10SM CLR 21/19 A2999 RMK AO2 T02050186
KGDJ 290855Z AUTO 34005KT 10SM CLR 21/19 A2999 RMK AO2 T02060187
KGDJ 290835Z AUTO 34004KT 10SM CLR 21/19 A2999 RMK AO2 T02060189
KGDJ 290815Z AUTO 34005KT 10SM CLR 21/19 A3000 RMK AO2 T02060190
KGDJ 290755Z AUTO 34004KT 10SM SCT090 21/19 A3002 RMK AO2 T02100191
KGDJ 290735Z AUTO 35004KT 10SM OVC090 21/20 A3002 RMK AO2 T02100195
KGDJ 290715Z AUTO 00000KT 10SM SCT090 21/19 A3004 RMK AO2 T02070190
KGDJ 290655Z AUTO 34003KT 10SM SCT095 21/19 A3005 RMK AO2 T02060190
KGDJ 290635Z AUTO 33003KT 10SM SCT095 20/19 A3005 RMK AO2 T02030185
KGDJ 290615Z AUTO 00000KT 10SM BKN095 21/19 A3005 RMK AO2 T02060186
KGDJ 290555Z AUTO 00000KT 10SM SCT095 21/19 A3006 RMK AO2 T02060186 10255 20206 402900206
KGDJ 290535Z AUTO 00000KT 10SM CLR 21/19 A3005 RMK AO2 T02090186
KGDJ 290515Z AUTO 00000KT 10SM CLR 22/19 A3005 RMK AO2 T02150187
KGDJ 290455Z AUTO 00000KT 10SM CLR 22/19 A3005 RMK AO2 T02180187
KGDJ 290435Z AUTO 00000KT 10SM SCT050 23/19 A3005 RMK AO2 T02270190
KGDJ 290415Z AUTO 21004KT 10SM BKN048 23/19 A3007 RMK AO2 T02290190
KGDJ 290355Z AUTO 18004KT 10SM BKN048 23/19 A3006 RMK AO2 LTG DSNT E T02300190
KGDJ 290335Z AUTO 00000KT 10SM CLR 23/19 A3004 RMK AO2 LTG DSNT E T02260190
KGDJ 290315Z AUTO 00000KT 10SM BKN049 23/19 A3003 RMK AO2 T02260190
KGDJ 290255Z AUTO 19004KT 10SM SCT047 23/19 A3003 RMK AO2 LTG DSNT SE T02270190
KGDJ 290235Z AUTO 00000KT 10SM SCT047 23/19 A3002 RMK AO2 T02290190
KGDJ 290215Z AUTO 18004KT 10SM CLR 23/19 A3000 RMK AO2 LTG DSNT SE T02310189
KGDJ 290155Z AUTO 00000KT 10SM CLR 23/19 A2997 RMK AO2 LTG DSNT SE T02340190
KGDJ 290135Z AUTO 00000KT 10SM CLR 24/19 A2995 RMK AO2 T02380187
KGDJ 290115Z AUTO 09003KT 10SM CLR 24/19 A2994 RMK AO2 LTG DSNT SE AND S T02430187
KGDJ 290055Z AUTO 36004KT 10SM CLR 25/19 A2994 RMK AO2 LTG DSNT S T02450187
KGDJ 290035Z AUTO 36004KT 10SM CLR 25/19 A2990 RMK AO2 LTG DSNT S T02480186
KGDJ 290015Z AUTO 00000KT 10SM CLR 25/19 A2991 RMK AO2 LTG DSNT S T02540187
KGDJ 282355Z AUTO 00000KT 10SM CLR 26/18 A2993 RMK AO2 T02550184 10261 20246
KGDJ 282335Z AUTO 31004KT 10SM CLR 26/19 A2998 RMK AO2 LTG DSNT S T02550186
KGDJ 282315Z AUTO 33007KT 10SM CLR 26/19 A2996 RMK AO2 T02560185
KGDJ 282255Z AUTO 36012G17KT 10SM SCT034 26/18 A2993 RMK AO2 T02580184
KGDJ 282235Z AUTO 34006KT 10SM SCT034 25/19 A2998 RMK AO2 T02520187
KGDJ 282215Z AUTO 35010G17KT 10SM SCT028 OVC032 26/19 A2997 RMK AO2 LTG DSNT S T02560187
KGDJ 282155Z AUTO 36008KT 10SM OVC026 26/19 A2997 RMK AO2 LTG DSNT S T02550191
KGDJ 282135Z AUTO 36012KT 10SM OVC024 25/19 A2998 RMK AO2 LTG DSNT NE T02520190
KGDJ 282115Z AUTO 35011G14KT 10SM OVC022 26/19 A3000 RMK AO2 T02550191
KGDJ 282055Z AUTO 01010G14KT 10SM OVC022 26/19 A2998 RMK AO2 LTG DSNT NE T02550194
KGDJ 282035Z AUTO 34012G17KT 10SM OVC022 25/19 A3000 RMK AO2 LTG DSNT NE T02500193
KGDJ 282015Z AUTO 34012KT 10SM OVC022 26/20 A3001 RMK AO2 LTG DSNT NE T02550196
KGDJ 281955Z AUTO 02004KT 10SM OVC022 26/20 A3000 RMK AO2 LTG DSNT NE AND E T02550200
KGDJ 281935Z AUTO 03005KT 10SM OVC024 26/20 A3000 RMK AO2 LTG DSNT W T02550197
KGDJ 281915Z AUTO 36008KT 10SM OVC024 25/20 A3000 RMK AO2 LTG DSNT W THRU NE T02510198
KGDJ 281855Z AUTO 02007KT 10SM OVC024 25/20 A3000 RMK AO2 LTG DSNT W T02510200
KGDJ 281835Z AUTO 03007KT 10SM OVC022 25/20 A2998 RMK AO2 LTG DSNT W T02500199
KGDJ 281815Z AUTO 01006KT 10SM -RA OVC020 25/20 A3001 RMK AO2 LTG DSNT NW T02470197
KGDJ 281755Z AUTO 03007G15KT 10SM OVC020 25/20 A2997 RMK AO2 LTG DSNT NW 60001 T02460195 10252 20222
KGDJ 281735Z AUTO 01009G14KT 10SM OVC020 25/20 A2999 RMK AO2 T02470196
KGDJ 281715Z AUTO 36008G16KT 10SM OVC020 25/20 A2998 RMK AO2 T02460196
KGDJ 281655Z AUTO 02006KT 10SM OVC018 24/20 A2998 RMK AO2 T02410198
KGDJ 281635Z AUTO 01009G14KT 10SM OVC018 24/20 A2999 RMK AO2 T02400196
KGDJ 281615Z AUTO 01007KT 10SM OVC018 24/20 A2998 RMK AO2 T02400196
KGDJ 281555Z AUTO 02007KT 10SM OVC018 24/20 A2997 RMK AO2 T02380201
KGDJ 281535Z AUTO 36007KT 10SM OVC018 24/20 A2997 RMK AO2 T02350200
KGDJ 281515Z AUTO 36006KT 10SM BKN018 OVC026 23/20 A2997 RMK AO2 T02300201
KGDJ 281455Z AUTO 35007KT 5SM -DZ SCT011 SCT017 OVC024 23/20 A2997 RMK AO2 P0001 60001 T02250202
KGDJ 281435Z AUTO 35006G14KT 2SM DZ BKN011 OVC019 22/20 A2997 RMK AO2 T02220199
KGDJ 281415Z AUTO 36008KT 7SM DZ OVC015 23/20 A2996 RMK AO2 T02270196
KGDJ 281355Z AUTO 01007KT 7SM -DZ OVC018 23/19 A2995 RMK AO2 T02320192
KGDJ 281335Z AUTO 01009G15KT 10SM OVC020 24/19 A2993 RMK AO2 T02410187
KGDJ 281315Z AUTO 36009KT 10SM OVC018 25/19 A2992 RMK AO2 T02450192
KGDJ 281255Z AUTO 36009G14KT 10SM OVC016 25/19 A2990 RMK AO2 T02450192
KGDJ 281235Z AUTO 01012G17KT 10SM OVC012 25/19 A2988 RMK AO2 T02470194
KGDJ 281215Z AUTO 32006KT 10SM OVC016 25/19 A2988 RMK AO2 T02500194
KGDJ 281155Z AUTO 32005KT 10SM OVC019 25/19 A2987 RMK AO2 T02520194 10290 20252
KGDJ 281135Z AUTO 32009G14KT 10SM SCT014 OVC021 26/20 A2986 RMK AO2 T02570200
KGDJ 281115Z AUTO 33005KT 10SM SCT021 OVC030 27/23 A2985 RMK AO2 LTG DSNT NE T02650231
KGDJ 281055Z AUTO 15003KT 10SM BKN030 OVC035 27/23 A2984 RMK AO2 T02670231
KGDJ 281035Z AUTO 09004KT 10SM BKN026 OVC034 27/23 A2984 RMK AO2 T02700231
KGDJ 281015Z AUTO 00000KT 10SM OVC028 27/23 A2982 RMK AO2 LTG DSNT NE T02730233
KGDJ 280955Z AUTO 14003KT 10SM BKN030 OVC037 27/23 A2982 RMK AO2 LTG DSNT NE T02710232
KGDJ 280935Z AUTO 00000KT 10SM SCT021 BKN028 OVC034 27/23 A2982 RMK AO2 LTG DSNT NE T02700232
KGDJ 280915Z AUTO 35005KT 10SM BKN021 BKN027 27/23 A2982 RMK AO2 LTG DSNT NE T02710233
KGDJ 280855Z AUTO 19006KT 10SM CLR 27/23 A2976 RMK AO2 LTG DSNT N T02680230
KGDJ 280835Z AUTO 17009KT 10SM CLR 27/23 A2975 RMK AO2 LTG DSNT E T02670230
KGDJ 280815Z AUTO 12007KT 10SM CLR 27/23 A2976 RMK AO2 LTG DSNT N T02720230
KGDJ 280755Z AUTO 06005KT 10SM CLR 28/23 A2977 RMK AO2 T02750230
KGDJ 280735Z AUTO 15006KT 10SM CLR 28/23 A2976 RMK AO2 T02760230
KGDJ 280715Z AUTO 17010KT 10SM CLR 28/23 A2975 RMK AO2 T02800230
KGDJ 280655Z AUTO 18012G16KT 10SM CLR 28/23 A2976 RMK AO2 T02820230
KGDJ 280635Z AUTO 19012G18KT 10SM CLR 29/23 A2976 RMK AO2 T02850230
KGDJ 280615Z AUTO 18012G20KT 10SM CLR 29/23 A2977 RMK AO2 T02860229
KGDJ 280555Z AUTO 18016G24KT 10SM CLR 29/23 A2977 RMK AO2 T02900228 10330 20290 403460256
KGDJ 280535Z AUTO 18015G23KT 10SM CLR 29/23 A2977 RMK AO2 T02930228
KGDJ 280515Z AUTO 18015G20KT 10SM CLR 30/23 A2977 RMK AO2 T02950227
KGDJ 280455Z AUTO 17016G23KT 10SM CLR 30/23 A2977 RMK AO2 T02970227
KGDJ 280435Z AUTO 18017G22KT 10SM CLR 30/23 A2976 RMK AO2 T02980229
KGDJ 280415Z AUTO 17015G22KT 7SM CLR 30/23 A2976 RMK AO2 T02990230
KGDJ 280355Z AUTO 17017G23KT 7SM CLR 30/23 A2976 RMK AO2 T03000232
KGDJ 280335Z AUTO 16015G20KT 7SM CLR 30/24 A2976 RMK AO2 T03010235
KGDJ 280315Z AUTO 15011KT 7SM CLR 30/24 A2976 RMK AO2 T03010235
KGDJ 280255Z AUTO 15010KT 7SM CLR 30/24 A2977 RMK AO2 T03030235
KGDJ 280235Z AUTO 15008KT 7SM CLR 31/24 A2977 RMK AO2 T03050236
KGDJ 280215Z AUTO 15008KT 7SM CLR 31/24 A2977 RMK AO2 T03080235
KGDJ 280155Z AUTO 15008KT 7SM CLR 31/24 A2977 RMK AO2 T03100235
KGDJ 280135Z AUTO 15011G15KT 5SM HZ CLR 31/24 A2977 RMK AO2 T03120235
KGDJ 280115Z AUTO 15010KT 5SM HZ CLR 32/24 A2977 RMK AO2 T03150235
KGDJ 280055Z AUTO 16008G15KT 7SM CLR 32/24 A2977 RMK AO2 T03180235
KGDJ 280035Z AUTO 16010KT 7SM CLR 32/23 A2977 RMK AO2 T03220234
KGDJ 280015Z AUTO 16013G20KT 7SM CLR 33/23 A2977 RMK AO2 T03250233
KGDJ 272355Z AUTO 16013G19KT 7SM SCT045 33/23 A2977 RMK AO2 T03300234 10346 20326
KGDJ 272335Z AUTO 16014G18KT 7SM SCT045 33/23 A2978 RMK AO2 T03300233


Page loaded:  11:32 UTC  |   04:32 AM Pacific  |   05:32 AM Mountain  |   06:32 AM Central  |   07:32 AM Eastern

 

ADVISORIES

FORECASTS

FORECASTS

OBSERVATIONS

USER TOOLS

ABOUT US